createdAt,value
2022-09-16T00:01:13.467Z,68.04
2022-09-16T00:03:41.724Z,68.01
2022-09-16T00:06:20.433Z,68.05
2022-09-16T00:08:49.201Z,67.62
2022-09-16T00:11:17.398Z,67.89
2022-09-16T00:13:45.278Z,67.80
2022-09-16T00:16:18.056Z,67.56
2022-09-16T00:18:45.445Z,67.30
2022-09-16T00:21:13.357Z,67.84
2022-09-16T00:23:40.656Z,67.39
2022-09-16T00:26:08.491Z,67.19
2022-09-16T00:28:36.024Z,67.21
2022-09-16T00:31:04.078Z,67.25
2022-09-16T00:33:31.824Z,67.18
2022-09-16T00:36:19.677Z,67.28
2022-09-16T00:38:51.178Z,67.17
2022-09-16T00:41:22.249Z,66.98
2022-09-16T00:43:58.765Z,66.41
2022-09-16T00:46:33.488Z,66.64
2022-09-16T00:49:03.763Z,66.80
2022-09-16T00:51:31.497Z,67.08
2022-09-16T00:54:03.166Z,67.46
2022-09-16T00:56:34.874Z,67.47
2022-09-16T00:59:09.809Z,67.36
2022-09-16T01:01:38.131Z,67.58
2022-09-16T01:04:45.402Z,67.35
2022-09-16T01:07:13.712Z,68.00
2022-09-16T01:09:41.773Z,68.94
2022-09-16T01:12:09.077Z,68.11
2022-09-16T01:14:54.964Z,68.32
2022-09-16T01:17:40.205Z,68.53
2022-09-16T01:20:38.664Z,68.56
2022-09-16T01:23:36.929Z,68.35
2022-09-16T01:26:35.442Z,68.39
2022-09-16T01:29:44.198Z,68.38
2022-09-16T01:32:20.889Z,68.22
2022-09-16T01:34:57.307Z,67.81
2022-09-16T01:37:33.759Z,68.26
2022-09-16T01:40:24.104Z,68.28
2022-09-16T01:43:04.061Z,67.95
2022-09-16T01:45:39.637Z,68.35
2022-09-16T01:48:36.896Z,68.34
2022-09-16T01:51:06.143Z,67.98
2022-09-16T01:53:47.665Z,68.92
2022-09-16T01:56:23.114Z,68.48
2022-09-16T01:58:56.428Z,68.80
2022-09-16T02:01:34.232Z,68.45
2022-09-16T02:04:10.399Z,68.25
2022-09-16T02:06:39.596Z,68.26
2022-09-16T02:09:29.137Z,67.92
2022-09-16T02:11:59.007Z,67.93
2022-09-16T02:14:30.710Z,67.69
2022-09-16T02:17:03.794Z,67.83
2022-09-16T02:19:39.901Z,67.47
2022-09-16T02:22:16.792Z,67.30
2022-09-16T02:24:46.920Z,67.19
2022-09-16T02:27:19.973Z,67.11
2022-09-16T02:29:56.624Z,67.17
2022-09-16T02:32:26.178Z,67.02
2022-09-16T02:34:54.619Z,66.75
2022-09-16T02:37:26.629Z,66.56
2022-09-16T02:39:57.841Z,66.40
2022-09-16T02:42:25.449Z,66.71
2022-09-16T02:44:53.163Z,66.53
2022-09-16T02:47:26.716Z,66.68
2022-09-16T02:49:59.832Z,66.57
2022-09-16T02:52:57.403Z,66.60
2022-09-16T02:55:46.536Z,66.42
2022-09-16T02:58:14.144Z,66.32
2022-09-16T03:00:46.587Z,65.78
2022-09-16T03:03:14.517Z,65.96
2022-09-16T03:06:04.042Z,66.11
2022-09-16T03:08:32.544Z,66.06
2022-09-16T03:11:31.024Z,66.41
2022-09-16T03:14:19.212Z,66.41
2022-09-16T03:17:20.500Z,65.60
2022-09-16T03:20:07.404Z,65.06
2022-09-16T03:22:53.868Z,65.72
2022-09-16T03:25:43.316Z,65.88
2022-09-16T03:28:15.981Z,65.32
2022-09-16T03:30:50.082Z,65.76
2022-09-16T03:33:34.487Z,65.78
2022-09-16T03:36:05.233Z,66.00
2022-09-16T03:38:34.420Z,66.04
2022-09-16T03:41:06.498Z,66.33
2022-09-16T03:43:34.027Z,66.12
2022-09-16T03:46:01.748Z,66.08
2022-09-16T03:48:29.107Z,65.76
2022-09-16T03:51:02.597Z,65.65
2022-09-16T03:53:30.991Z,65.46
2022-09-16T03:55:58.268Z,65.77
2022-09-16T03:58:25.580Z,65.72
2022-09-16T04:00:53.919Z,65.60
2022-09-16T04:03:21.468Z,65.68
2022-09-16T04:05:55.339Z,65.68
2022-09-16T04:08:23.557Z,65.58
2022-09-16T04:10:59.353Z,65.61
2022-09-16T04:13:29.667Z,65.64
2022-09-16T04:15:57.128Z,65.87
2022-09-16T04:18:24.484Z,65.59
2022-09-16T04:20:59.851Z,65.67
2022-09-16T04:23:28.239Z,65.56
2022-09-16T04:26:02.374Z,65.72
2022-09-16T04:28:31.111Z,65.62
2022-09-16T04:31:03.073Z,65.82
2022-09-16T04:33:31.506Z,65.58
2022-09-16T04:36:16.750Z,65.71
2022-09-16T04:38:45.458Z,65.76
2022-09-16T04:41:26.095Z,65.08
2022-09-16T04:43:56.207Z,65.12
2022-09-16T04:46:25.326Z,65.35
2022-09-16T04:48:54.102Z,65.63
2022-09-16T04:51:22.499Z,65.69
2022-09-16T04:53:50.540Z,65.84
2022-09-16T04:56:20.415Z,65.75
2022-09-16T04:58:50.083Z,65.63
2022-09-16T05:01:19.948Z,65.63
2022-09-16T05:03:50.473Z,64.75
2022-09-16T05:06:20.947Z,64.86
2022-09-16T05:08:49.515Z,65.47
2022-09-16T05:11:20.084Z,65.74
2022-09-16T05:13:47.693Z,65.73
2022-09-16T05:16:17.293Z,65.84
2022-09-16T05:18:46.323Z,65.25
2022-09-16T05:21:15.874Z,65.51
2022-09-16T05:23:46.699Z,65.73
2022-09-16T05:26:16.687Z,65.81
2022-09-16T05:28:43.972Z,65.74
2022-09-16T05:31:16.323Z,65.67
2022-09-16T05:33:46.069Z,65.62
2022-09-16T05:36:17.888Z,65.74
2022-09-16T05:39:04.763Z,65.58
2022-09-16T05:41:32.982Z,65.38
2022-09-16T05:44:01.331Z,64.31
2022-09-16T05:46:29.025Z,65.22
2022-09-16T05:48:56.666Z,65.73
2022-09-16T05:51:25.734Z,65.49
2022-09-16T05:53:53.698Z,65.71
2022-09-16T05:56:25.685Z,65.95
2022-09-16T05:58:54.649Z,65.74
2022-09-16T06:01:27.754Z,65.52
2022-09-16T06:03:55.407Z,65.50
2022-09-16T06:06:29.829Z,64.65
2022-09-16T06:08:59.665Z,63.70
2022-09-16T06:11:28.358Z,64.42
2022-09-16T06:14:01.465Z,63.82
2022-09-16T06:16:32.898Z,63.95
2022-09-16T06:19:02.014Z,64.11
2022-09-16T06:21:29.985Z,64.19
2022-09-16T06:23:57.835Z,64.45
2022-09-16T06:26:26.574Z,63.90
2022-09-16T06:28:54.747Z,64.13
2022-09-16T06:31:24.373Z,64.31
2022-09-16T06:33:52.836Z,64.34
2022-09-16T06:36:28.103Z,63.76
2022-09-16T06:38:55.709Z,64.05
2022-09-16T06:41:24.105Z,63.98
2022-09-16T06:43:51.998Z,63.10
2022-09-16T06:46:22.910Z,61.92
2022-09-16T06:48:52.655Z,62.75
2022-09-16T06:51:22.818Z,62.85
2022-09-16T06:53:51.280Z,62.95
2022-09-16T06:56:20.445Z,62.86
2022-09-16T06:58:55.625Z,63.15
2022-09-16T07:01:28.414Z,62.75
2022-09-16T07:03:57.577Z,62.35
2022-09-16T07:06:49.549Z,62.21
2022-09-16T07:09:15.276Z,62.04
2022-09-16T07:11:42.836Z,61.99
2022-09-16T07:14:10.237Z,62.38
2022-09-16T07:16:37.646Z,61.68
2022-09-16T07:19:05.331Z,62.08
2022-09-16T07:21:32.942Z,62.02
2022-09-16T07:24:02.557Z,61.67
2022-09-16T07:26:32.331Z,58.80
2022-09-16T07:29:01.234Z,60.06
2022-09-16T07:31:31.053Z,60.44
2022-09-16T07:34:04.035Z,61.49
2022-09-16T07:36:38.094Z,61.41
2022-09-16T07:39:06.302Z,61.42
2022-09-16T07:41:36.597Z,61.03
2022-09-16T07:44:05.401Z,60.75
2022-09-16T07:46:34.915Z,61.03
2022-09-16T07:49:06.413Z,61.14
2022-09-16T07:51:35.030Z,61.64
2022-09-16T07:54:07.473Z,60.93
2022-09-16T07:57:01.323Z,58.88
2022-09-16T07:59:28.656Z,59.65
2022-09-16T08:01:56.374Z,60.34
2022-09-16T08:04:23.984Z,59.62
2022-09-16T08:06:51.417Z,58.93
2022-09-16T08:12:07.949Z,59.49
2022-09-16T08:14:35.383Z,59.16
2022-09-16T08:17:03.387Z,59.94
2022-09-16T08:19:30.983Z,59.73
2022-09-16T08:21:58.291Z,60.21
2022-09-16T08:24:25.599Z,58.54
2022-09-16T08:26:53.767Z,59.02
2022-09-16T08:29:22.485Z,59.84
2022-09-16T08:31:49.830Z,60.03
2022-09-16T08:34:17.699Z,59.44
2022-09-16T08:36:45.003Z,58.82
2022-09-16T08:39:12.274Z,58.30
2022-09-16T08:41:52.534Z,59.03
2022-09-16T08:44:34.648Z,59.72
2022-09-16T08:47:06.305Z,57.27
2022-09-16T08:49:46.571Z,57.75
2022-09-16T08:52:33.481Z,58.36
2022-09-16T08:55:08.193Z,58.50
2022-09-16T08:57:43.082Z,57.69
2022-09-16T09:00:16.748Z,57.23
2022-09-16T09:03:14.721Z,58.06
2022-09-16T09:05:53.620Z,58.56
2022-09-16T09:08:43.264Z,58.87
2022-09-16T09:11:17.436Z,59.41
2022-09-16T09:13:54.353Z,58.79
2022-09-16T09:16:31.152Z,58.83
2022-09-16T09:19:28.651Z,59.34
2022-09-16T09:22:22.304Z,59.49
2022-09-16T09:25:21.949Z,59.74
2022-09-16T09:27:58.985Z,60.31
2022-09-16T09:30:28.047Z,60.95
2022-09-16T09:33:45.011Z,60.62
2022-09-16T09:36:31.412Z,60.57
2022-09-16T09:39:02.619Z,59.56
2022-09-16T09:41:34.040Z,58.89
2022-09-16T09:44:35.278Z,59.27
2022-09-16T09:47:08.197Z,59.18
2022-09-16T09:49:48.122Z,58.84
2022-09-16T09:52:33.963Z,57.46
2022-09-16T09:55:16.164Z,58.05
2022-09-16T09:58:27.218Z,57.23
2022-09-16T10:00:57.672Z,55.80
2022-09-16T10:03:27.043Z,56.08
2022-09-16T10:05:54.713Z,55.35
2022-09-16T10:08:43.702Z,54.49
2022-09-16T10:11:26.307Z,54.35
2022-09-16T10:13:55.363Z,52.76
2022-09-16T10:16:26.825Z,53.63
2022-09-16T10:19:07.043Z,53.50
2022-09-16T10:21:46.955Z,53.83
2022-09-16T10:24:35.263Z,53.26
2022-09-16T10:27:20.978Z,52.03
2022-09-16T10:29:48.978Z,51.83
2022-09-16T10:32:18.375Z,51.24
2022-09-16T10:34:46.619Z,51.63
2022-09-16T10:37:13.843Z,51.47
2022-09-16T10:39:45.071Z,52.45
2022-09-16T10:42:30.797Z,52.84
2022-09-16T10:45:04.869Z,53.60
2022-09-16T10:47:33.888Z,52.99
2022-09-16T10:50:06.595Z,52.06
2022-09-16T10:52:45.335Z,51.28
2022-09-16T10:55:27.167Z,52.09
2022-09-16T10:58:07.628Z,52.63
2022-09-16T11:00:58.238Z,52.52
2022-09-16T11:03:50.079Z,52.52
2022-09-16T11:06:20.432Z,52.43
2022-09-16T11:09:11.240Z,52.31
2022-09-16T11:11:54.388Z,52.53
2022-09-16T11:14:33.951Z,52.18
2022-09-16T11:17:38.685Z,51.76
2022-09-16T11:20:18.051Z,50.93
2022-09-16T11:22:54.793Z,51.27
2022-09-16T11:25:40.768Z,50.54
2022-09-16T11:28:27.076Z,50.04
2022-09-16T11:31:00.160Z,50.74
2022-09-16T11:33:42.084Z,50.66
2022-09-16T11:36:16.497Z,51.48
2022-09-16T11:39:05.979Z,49.55
2022-09-16T11:41:50.221Z,47.65
2022-09-16T11:44:32.979Z,47.62
2022-09-16T11:47:16.388Z,47.18
2022-09-16T11:50:16.037Z,47.02
2022-09-16T11:53:05.356Z,46.66
2022-09-16T11:55:39.412Z,46.24
2022-09-16T11:58:32.240Z,46.39
2022-09-16T12:01:05.988Z,47.49
2022-09-16T12:03:49.688Z,46.83
2022-09-16T12:06:23.963Z,46.33
2022-09-16T12:09:01.086Z,46.62
2022-09-16T12:11:36.531Z,45.83
2022-09-16T12:14:09.352Z,46.30
2022-09-16T12:16:45.415Z,46.14
2022-09-16T12:19:21.100Z,46.28
2022-09-16T12:22:01.256Z,46.71
2022-09-16T12:24:56.053Z,46.84
2022-09-16T12:27:34.739Z,46.90
2022-09-16T12:30:04.323Z,45.88
2022-09-16T12:33:09.225Z,45.97
2022-09-16T12:35:39.821Z,46.79
2022-09-16T12:38:17.400Z,46.62
2022-09-16T12:41:03.897Z,46.48
2022-09-16T12:43:59.025Z,47.01
2022-09-16T12:46:44.786Z,47.33
2022-09-16T12:49:44.349Z,47.18
2022-09-16T12:52:46.103Z,47.73
2022-09-16T12:55:40.628Z,48.42
2022-09-16T12:58:38.872Z,45.40
2022-09-16T13:01:06.048Z,46.13
2022-09-16T13:06:13.618Z,46.78
2022-09-16T13:08:41.224Z,46.84
2022-09-16T13:14:22.135Z,48.09
2022-09-16T13:16:55.735Z,46.17
2022-09-16T13:19:39.692Z,46.42
2022-09-16T13:22:24.555Z,46.96
2022-09-16T13:25:09.259Z,46.85
2022-09-16T13:27:40.884Z,47.28
2022-09-16T13:30:08.336Z,48.88
2022-09-16T13:32:50.474Z,48.39
2022-09-16T13:35:18.107Z,47.08
2022-09-16T13:37:46.745Z,47.95
2022-09-16T13:40:26.772Z,47.25
2022-09-16T13:43:30.729Z,47.45
2022-09-16T13:46:08.876Z,47.19
2022-09-16T13:48:47.462Z,48.66
2022-09-16T13:51:20.273Z,49.18
2022-09-16T13:53:49.936Z,48.44
2022-09-16T13:56:34.970Z,48.53
2022-09-16T13:59:26.972Z,49.02
2022-09-16T14:02:27.445Z,49.25
2022-09-16T14:05:20.910Z,49.27
2022-09-16T14:08:12.059Z,49.23
2022-09-16T14:11:10.117Z,49.36
2022-09-16T14:13:45.408Z,49.80
2022-09-16T14:16:21.122Z,49.32
2022-09-16T14:18:56.396Z,48.46
2022-09-16T14:21:24.625Z,49.26
2022-09-16T14:23:51.958Z,50.50
2022-09-16T14:26:23.879Z,49.80
2022-09-16T14:29:01.934Z,49.88
2022-09-16T14:31:30.975Z,50.16
2022-09-16T14:34:04.635Z,50.46
2022-09-16T14:36:36.192Z,51.44
2022-09-16T14:39:06.730Z,51.77
2022-09-16T14:41:52.363Z,51.25
2022-09-16T14:44:19.935Z,50.92
2022-09-16T14:46:50.708Z,50.60
2022-09-16T14:49:18.737Z,50.72
2022-09-16T14:52:23.119Z,51.20
2022-09-16T14:54:51.819Z,50.90
2022-09-16T14:57:22.976Z,50.78
2022-09-16T14:59:52.393Z,51.23
2022-09-16T15:02:42.559Z,50.77
2022-09-16T15:05:38.633Z,50.60
2022-09-16T15:08:27.525Z,50.56
2022-09-16T15:10:57.715Z,51.09
2022-09-16T15:13:35.710Z,51.25
2022-09-16T15:16:12.186Z,51.67
2022-09-16T15:18:43.762Z,51.57
2022-09-16T15:21:23.809Z,51.28
2022-09-16T15:23:52.920Z,52.12
2022-09-16T15:26:26.067Z,52.43
2022-09-16T15:28:59.179Z,52.26
2022-09-16T15:31:40.627Z,52.13
2022-09-16T15:34:23.779Z,52.21
2022-09-16T15:36:53.020Z,52.46
2022-09-16T15:39:30.517Z,52.46
2022-09-16T15:42:13.631Z,52.98
2022-09-16T15:44:48.781Z,53.28
2022-09-16T15:47:29.002Z,53.68
2022-09-16T15:50:12.423Z,53.29
2022-09-16T15:53:01.651Z,53.62
2022-09-16T15:55:36.369Z,53.78
2022-09-16T15:58:33.673Z,54.01
2022-09-16T16:01:10.389Z,53.63
2022-09-16T16:03:50.004Z,53.65
2022-09-16T16:06:17.376Z,54.08
2022-09-16T16:08:48.249Z,53.81
2022-09-16T16:11:20.624Z,54.19
2022-09-16T16:13:51.438Z,53.95
2022-09-16T16:16:19.073Z,54.26
2022-09-16T16:18:46.664Z,53.86
2022-09-16T16:21:16.385Z,54.20
2022-09-16T16:23:43.849Z,54.70
2022-09-16T16:26:11.526Z,54.62
2022-09-16T16:28:39.108Z,54.46
2022-09-16T16:31:11.620Z,54.64
2022-09-16T16:33:44.917Z,54.73
2022-09-16T16:36:14.169Z,54.68
2022-09-16T16:38:41.815Z,54.89
2022-09-16T16:41:09.338Z,54.78
2022-09-16T16:43:36.648Z,54.39
2022-09-16T16:46:04.647Z,54.62
2022-09-16T16:48:31.993Z,54.73
2022-09-16T16:51:02.296Z,55.04
2022-09-16T16:53:30.426Z,55.08
2022-09-16T16:56:04.623Z,54.68
2022-09-16T16:58:33.027Z,54.37
2022-09-16T17:01:10.040Z,54.92
2022-09-16T17:03:37.639Z,55.36
2022-09-16T17:06:05.238Z,55.45
2022-09-16T17:08:33.281Z,55.20
2022-09-16T17:11:16.373Z,55.49
2022-09-16T17:13:48.530Z,55.98
2022-09-16T17:16:19.627Z,55.80
2022-09-16T17:18:47.589Z,55.82
2022-09-16T17:21:23.939Z,55.85
2022-09-16T17:23:52.455Z,56.19
2022-09-16T17:26:21.112Z,55.48
2022-09-16T17:28:50.718Z,54.36
2022-09-16T17:31:21.140Z,54.56
2022-09-16T17:33:48.663Z,54.81
2022-09-16T17:36:19.560Z,54.99
2022-09-16T17:38:47.161Z,55.18
2022-09-16T17:41:17.015Z,55.25
2022-09-16T17:43:44.388Z,54.98
2022-09-16T17:46:15.912Z,54.96
2022-09-16T17:48:43.622Z,55.26
2022-09-16T17:51:11.210Z,55.19
2022-09-16T17:53:38.813Z,55.08
2022-09-16T17:56:08.739Z,54.60
2022-09-16T17:58:37.065Z,54.80
2022-09-16T18:01:05.807Z,54.61
2022-09-16T18:03:33.486Z,54.73
2022-09-16T18:06:12.925Z,54.92
2022-09-16T18:08:41.157Z,55.00
2022-09-16T18:11:10.146Z,54.73
2022-09-16T18:13:37.794Z,54.49
2022-09-16T18:16:07.959Z,54.39
2022-09-16T18:18:36.741Z,54.56
2022-09-16T18:21:05.522Z,54.76
2022-09-16T18:23:33.636Z,54.87
2022-09-16T18:26:06.136Z,54.86
2022-09-16T18:29:05.268Z,55.12
2022-09-16T18:31:28.878Z,55.60
2022-09-16T18:33:56.906Z,55.83
2022-09-16T18:36:25.933Z,55.99
2022-09-16T18:38:54.623Z,55.77
2022-09-16T18:41:24.483Z,55.75
2022-09-16T18:43:57.358Z,55.96
2022-09-16T18:46:26.870Z,55.76
2022-09-16T18:48:54.929Z,55.56
2022-09-16T18:51:23.301Z,55.32
2022-09-16T18:53:53.140Z,55.35
2022-09-16T18:56:22.142Z,55.31
2022-09-16T18:59:10.005Z,55.81
2022-09-16T19:01:39.194Z,56.54
2022-09-16T19:04:09.471Z,56.51
2022-09-16T19:06:39.123Z,56.64
2022-09-16T19:09:08.624Z,56.69
2022-09-16T19:11:36.587Z,56.63
2022-09-16T19:14:17.810Z,56.59
2022-09-16T19:16:45.889Z,56.14
2022-09-16T19:19:14.857Z,56.50
2022-09-16T19:21:43.292Z,56.26
2022-09-16T19:24:16.286Z,56.37
2022-09-16T19:26:44.502Z,56.47
2022-09-16T19:29:13.330Z,56.46
2022-09-16T19:31:42.135Z,56.15
2022-09-16T19:34:09.815Z,56.17
2022-09-16T19:36:37.808Z,56.21
2022-09-16T19:39:06.209Z,56.43
2022-09-16T19:41:35.133Z,56.37
2022-09-16T19:44:05.378Z,56.45
2022-09-16T19:46:34.998Z,56.29
2022-09-16T19:49:05.388Z,56.28
2022-09-16T19:51:33.144Z,56.39
2022-09-16T19:54:01.174Z,56.42
2022-09-16T19:56:31.420Z,56.64
2022-09-16T19:58:59.287Z,56.71
2022-09-16T20:01:28.691Z,56.81
2022-09-16T20:03:56.578Z,56.88
2022-09-16T20:06:30.735Z,56.90
2022-09-16T20:09:00.047Z,57.39
2022-09-16T20:11:31.412Z,57.64
2022-09-16T20:14:01.085Z,57.48
2022-09-16T20:16:31.704Z,57.59
2022-09-16T20:18:59.587Z,58.13
2022-09-16T20:21:27.271Z,58.27
2022-09-16T20:23:54.841Z,58.49
2022-09-16T20:26:22.887Z,58.57
2022-09-16T20:28:51.912Z,59.04
2022-09-16T20:31:22.186Z,59.22
2022-09-16T20:33:50.133Z,59.12
2022-09-16T20:36:20.571Z,59.23
2022-09-16T20:38:48.587Z,59.11
2022-09-16T20:41:17.487Z,59.23
2022-09-16T20:43:45.977Z,59.55
2022-09-16T20:46:15.531Z,59.75
2022-09-16T20:48:44.154Z,59.85
2022-09-16T20:51:14.530Z,59.73
2022-09-16T20:53:43.011Z,59.48
2022-09-16T20:56:15.389Z,59.74
2022-09-16T20:58:43.253Z,59.65
2022-09-16T21:01:16.196Z,59.79
2022-09-16T21:03:44.500Z,59.65
2022-09-16T21:06:14.595Z,59.88
2022-09-16T21:08:42.677Z,59.97
2022-09-16T21:11:15.481Z,59.99
2022-09-16T21:13:45.107Z,60.44
2022-09-16T21:16:15.548Z,60.75
2022-09-16T21:18:43.426Z,61.17
2022-09-16T21:21:15.194Z,61.58
2022-09-16T21:23:43.238Z,62.40
2022-09-16T21:26:25.172Z,62.50
2022-09-16T21:28:55.167Z,62.68
2022-09-16T21:31:23.383Z,63.36
2022-09-16T21:33:51.939Z,63.41
2022-09-16T21:36:21.299Z,64.03
2022-09-16T21:38:48.760Z,64.91
2022-09-16T21:41:21.288Z,64.69
2022-09-16T21:43:51.316Z,64.32
2022-09-16T21:46:20.628Z,64.64
2022-09-16T21:48:48.973Z,64.34
2022-09-16T21:51:18.699Z,64.06
2022-09-16T21:53:47.025Z,63.94
2022-09-16T21:56:19.876Z,63.87
2022-09-16T21:58:49.431Z,63.96
2022-09-16T22:01:20.001Z,63.25
2022-09-16T22:03:53.475Z,63.40
2022-09-16T22:06:22.295Z,64.01
2022-09-16T22:08:50.145Z,63.89
2022-09-16T22:11:18.893Z,63.76
2022-09-16T22:13:46.653Z,63.88
2022-09-16T22:16:26.610Z,64.11
2022-09-16T22:18:57.228Z,64.20
2022-09-16T22:21:27.202Z,64.66
2022-09-16T22:23:59.080Z,64.54
2022-09-16T22:26:27.192Z,64.67
2022-09-16T22:28:54.577Z,64.71
2022-09-16T22:31:24.709Z,64.80
2022-09-16T22:33:53.626Z,64.35
2022-09-16T22:36:23.651Z,65.25
2022-09-16T22:38:55.944Z,65.05
2022-09-16T22:41:24.589Z,64.88
2022-09-16T22:43:53.467Z,65.48
2022-09-16T22:46:26.057Z,65.29
2022-09-16T22:48:55.571Z,65.30
2022-09-16T22:51:23.172Z,65.20
2022-09-16T22:53:50.840Z,65.16
2022-09-16T22:56:21.071Z,65.34
2022-09-16T22:58:52.775Z,65.19
2022-09-16T23:01:50.950Z,64.99
2022-09-16T23:04:19.024Z,64.73
2022-09-16T23:06:47.298Z,64.59
2022-09-16T23:09:19.935Z,64.57
2022-09-16T23:11:47.483Z,64.49
2022-09-16T23:14:21.599Z,64.83
2022-09-16T23:16:49.179Z,64.86
2022-09-16T23:19:16.881Z,64.55
2022-09-16T23:21:44.203Z,64.60
2022-09-16T23:24:15.385Z,64.67
2022-09-16T23:26:42.977Z,64.86
2022-09-16T23:29:11.927Z,64.56
2022-09-16T23:31:41.590Z,64.25
2022-09-16T23:34:19.402Z,64.45
2022-09-16T23:36:47.658Z,64.90
2022-09-16T23:39:15.566Z,65.23
2022-09-16T23:41:43.555Z,64.81
2022-09-16T23:44:15.596Z,65.06
2022-09-16T23:46:43.205Z,65.46
2022-09-16T23:49:11.426Z,65.07
2022-09-16T23:51:38.962Z,65.25
2022-09-16T23:54:06.277Z,64.85
2022-09-16T23:56:33.901Z,65.03
2022-09-16T23:59:01.340Z,65.49
